createdAt,value
2023-05-09T00:01:41.855Z,23.93
2023-05-09T00:04:08.407Z,24.27
2023-05-09T00:06:35.145Z,23.60
2023-05-09T00:09:01.688Z,25.27
2023-05-09T00:11:28.208Z,20.33
2023-05-09T00:13:54.784Z,28.57
2023-05-09T00:16:24.160Z,22.63
2023-05-09T00:18:51.031Z,26.03
2023-05-09T00:21:17.612Z,27.03
2023-05-09T00:23:44.159Z,21.93
2023-05-09T00:26:10.808Z,21.60
2023-05-09T00:28:37.662Z,26.53
2023-05-09T00:31:04.652Z,21.93
2023-05-09T00:33:31.139Z,27.97
2023-05-09T00:35:57.664Z,24.47
2023-05-09T00:38:24.189Z,23.37
2023-05-09T00:40:50.689Z,23.70
2023-05-09T00:43:17.280Z,22.67
2023-05-09T00:45:44.216Z,27.60
2023-05-09T00:48:10.783Z,23.77
2023-05-09T00:50:37.730Z,23.13
2023-05-09T00:53:04.592Z,25.17
2023-05-09T00:55:31.165Z,28.40
2023-05-09T00:57:57.662Z,23.70
2023-05-09T01:00:24.171Z,21.67
2023-05-09T01:02:53.090Z,22.60
2023-05-09T01:05:20.106Z,25.00
2023-05-09T01:07:49.640Z,23.97
2023-05-09T01:10:35.128Z,23.80
2023-05-09T01:13:06.224Z,27.53
2023-05-09T01:15:47.450Z,27.03
2023-05-09T01:18:23.278Z,23.07
2023-05-09T01:21:04.185Z,24.43
2023-05-09T01:23:49.667Z,21.27
2023-05-09T01:26:35.069Z,24.07
2023-05-09T01:29:20.452Z,21.00
2023-05-09T01:31:47.005Z,27.63
2023-05-09T01:34:13.568Z,24.37
2023-05-09T01:36:40.180Z,25.80
2023-05-09T01:39:06.706Z,24.67
2023-05-09T01:41:34.724Z,22.83
2023-05-09T01:44:02.124Z,21.47
2023-05-09T01:46:28.776Z,22.87
2023-05-09T01:48:55.272Z,25.23
2023-05-09T01:51:21.861Z,26.50
2023-05-09T01:53:48.335Z,20.90
2023-05-09T01:56:14.831Z,22.60
2023-05-09T01:58:41.522Z,24.23
2023-05-09T02:01:08.169Z,22.87
2023-05-09T02:03:34.677Z,22.10
2023-05-09T02:06:02.143Z,24.37
2023-05-09T02:08:29.824Z,24.60
2023-05-09T02:10:56.666Z,29.60
2023-05-09T02:13:23.283Z,21.80
2023-05-09T02:15:49.868Z,23.20
2023-05-09T02:18:16.976Z,25.13
2023-05-09T02:20:43.986Z,19.43
2023-05-09T02:23:10.556Z,24.63
2023-05-09T02:25:37.112Z,19.17
2023-05-09T02:28:03.669Z,18.40
2023-05-09T02:30:31.441Z,17.97
2023-05-09T02:32:59.955Z,22.07
2023-05-09T02:35:27.273Z,21.10
2023-05-09T02:37:54.047Z,21.20
2023-05-09T02:40:20.850Z,21.33
2023-05-09T02:42:47.384Z,24.77
2023-05-09T02:45:14.127Z,18.60
2023-05-09T02:47:40.942Z,19.43
2023-05-09T02:50:07.757Z,18.43
2023-05-09T02:52:34.256Z,20.30
2023-05-09T02:55:00.950Z,22.23
2023-05-09T02:57:27.458Z,22.17
2023-05-09T02:59:53.932Z,22.37
2023-05-09T03:02:20.627Z,18.63
2023-05-09T03:04:47.169Z,18.27
2023-05-09T03:07:13.738Z,19.17
2023-05-09T03:09:41.313Z,19.97
2023-05-09T03:12:08.033Z,18.20
2023-05-09T03:14:34.522Z,20.23
2023-05-09T03:17:01.112Z,18.47
2023-05-09T03:19:27.614Z,21.30
2023-05-09T03:21:54.131Z,19.03
2023-05-09T03:24:20.869Z,20.77
2023-05-09T03:26:47.442Z,19.17
2023-05-09T03:29:14.014Z,19.83
2023-05-09T03:31:40.513Z,20.50
2023-05-09T03:34:07.125Z,22.30
2023-05-09T03:36:33.649Z,19.30
2023-05-09T03:39:00.203Z,20.33
2023-05-09T03:41:26.886Z,20.13
2023-05-09T03:43:53.422Z,18.70
2023-05-09T03:46:19.946Z,19.20
2023-05-09T03:48:46.494Z,17.47
2023-05-09T03:51:12.974Z,21.87
2023-05-09T03:53:39.488Z,20.80
2023-05-09T03:56:06.611Z,22.20
2023-05-09T03:58:33.156Z,24.80
2023-05-09T04:00:59.742Z,19.97
2023-05-09T04:03:27.037Z,21.03
2023-05-09T04:05:53.862Z,22.57
2023-05-09T04:08:21.880Z,22.20
2023-05-09T04:10:49.218Z,20.97
2023-05-09T04:13:16.580Z,21.20
2023-05-09T04:15:43.204Z,21.90
2023-05-09T04:18:09.773Z,18.47
2023-05-09T04:20:36.636Z,17.27
2023-05-09T04:23:03.261Z,19.57
2023-05-09T04:25:31.277Z,18.20
2023-05-09T04:27:57.944Z,20.50
2023-05-09T04:30:27.178Z,18.97
2023-05-09T04:32:53.823Z,19.17
2023-05-09T04:35:20.883Z,17.37
2023-05-09T04:37:47.671Z,15.93
2023-05-09T04:40:14.694Z,18.10
2023-05-09T04:42:41.560Z,17.63
2023-05-09T04:45:08.511Z,18.07
2023-05-09T04:47:35.103Z,14.90
2023-05-09T04:50:01.642Z,15.27
2023-05-09T04:52:28.240Z,14.13
2023-05-09T04:54:55.560Z,14.70
2023-05-09T04:57:22.064Z,17.17
2023-05-09T04:59:48.570Z,18.03
2023-05-09T05:02:15.045Z,19.90
2023-05-09T05:04:41.891Z,15.80
2023-05-09T05:07:08.416Z,14.97
2023-05-09T05:09:34.897Z,14.60
2023-05-09T05:12:03.677Z,13.60
2023-05-09T05:14:31.041Z,17.00
2023-05-09T05:16:57.567Z,18.97
2023-05-09T05:19:24.045Z,12.73
2023-05-09T05:21:50.663Z,11.23
2023-05-09T05:24:17.155Z,14.13
2023-05-09T05:26:43.692Z,14.83
2023-05-09T05:29:10.249Z,14.43
2023-05-09T05:31:37.090Z,11.73
2023-05-09T05:34:04.124Z,13.50
2023-05-09T05:36:32.325Z,16.73
2023-05-09T05:38:58.974Z,14.10
2023-05-09T05:41:26.419Z,13.73
2023-05-09T05:43:54.367Z,9.47
2023-05-09T05:46:21.286Z,12.50
2023-05-09T05:48:47.884Z,10.00
2023-05-09T05:51:14.418Z,13.17
2023-05-09T05:53:41.078Z,10.57
2023-05-09T05:56:07.797Z,9.30
2023-05-09T05:58:34.409Z,9.83
2023-05-09T06:01:02.634Z,12.00
2023-05-09T06:03:29.272Z,11.07
2023-05-09T06:05:56.659Z,11.73
2023-05-09T06:08:23.269Z,11.03
2023-05-09T06:10:49.740Z,8.70
2023-05-09T06:13:16.588Z,12.13
2023-05-09T06:15:43.315Z,6.90
2023-05-09T06:18:09.834Z,7.00
2023-05-09T06:20:39.225Z,6.60
2023-05-09T06:23:05.775Z,8.20
2023-05-09T06:25:32.312Z,9.97
2023-05-09T06:27:58.823Z,8.20
2023-05-09T06:30:26.957Z,9.87
2023-05-09T06:32:54.255Z,10.97
2023-05-09T06:35:20.914Z,8.13
2023-05-09T06:37:48.854Z,8.10
2023-05-09T06:40:15.989Z,8.23
2023-05-09T06:42:42.488Z,5.33
2023-05-09T06:45:09.167Z,8.30
2023-05-09T06:47:35.730Z,6.37
2023-05-09T06:50:02.281Z,9.50
2023-05-09T06:52:28.903Z,9.17
2023-05-09T06:55:00.066Z,8.37
2023-05-09T06:57:26.677Z,7.47
2023-05-09T06:59:53.299Z,5.13
2023-05-09T07:02:20.090Z,7.70
2023-05-09T07:04:46.693Z,4.67
2023-05-09T07:07:13.320Z,7.03
2023-05-09T07:09:40.303Z,9.60
2023-05-09T07:12:07.493Z,7.43
2023-05-09T07:14:34.042Z,3.87
2023-05-09T07:17:18.207Z,10.73
2023-05-09T07:19:47.346Z,7.13
2023-05-09T07:22:13.902Z,9.07
2023-05-09T07:24:40.545Z,11.47
2023-05-09T07:27:07.466Z,12.20
2023-05-09T07:29:34.285Z,6.20
2023-05-09T07:32:00.862Z,6.70
2023-05-09T07:34:27.445Z,8.37
2023-05-09T07:36:54.024Z,9.07
2023-05-09T07:39:20.648Z,5.10
2023-05-09T07:41:48.702Z,8.13
2023-05-09T07:44:16.057Z,7.63
2023-05-09T07:46:42.974Z,7.87
2023-05-09T07:49:09.557Z,5.70
2023-05-09T07:51:36.091Z,8.33
2023-05-09T07:54:02.643Z,11.10
2023-05-09T07:56:29.236Z,3.57
2023-05-09T07:58:56.016Z,9.17
2023-05-09T08:01:22.549Z,7.50
2023-05-09T08:03:49.220Z,6.90
2023-05-09T08:06:16.016Z,6.03
2023-05-09T08:08:42.583Z,6.40
2023-05-09T08:11:11.052Z,3.63
2023-05-09T08:13:37.653Z,3.67
2023-05-09T08:16:04.354Z,5.50
2023-05-09T08:18:31.239Z,2.73
2023-05-09T08:20:59.769Z,7.77
2023-05-09T08:23:26.851Z,3.80
2023-05-09T08:25:54.846Z,3.17
2023-05-09T08:28:24.310Z,4.80
2023-05-09T08:30:51.634Z,6.45
2023-05-09T08:33:18.698Z,6.60
2023-05-09T08:35:47.433Z,5.07
2023-05-09T08:38:13.996Z,7.30
2023-05-09T08:40:40.968Z,5.53
2023-05-09T08:43:07.838Z,6.00
2023-05-09T08:45:42.884Z,3.80
2023-05-09T08:48:09.471Z,5.37
2023-05-09T08:50:36.167Z,2.37
2023-05-09T08:53:02.852Z,1.93
2023-05-09T08:55:29.438Z,3.40
2023-05-09T08:57:56.046Z,3.85
2023-05-09T09:00:23.125Z,6.13
2023-05-09T09:02:50.071Z,4.15
2023-05-09T09:05:34.632Z,4.65
2023-05-09T09:08:03.953Z,5.05
2023-05-09T09:10:30.742Z,2.40
2023-05-09T09:12:57.665Z,3.65
2023-05-09T09:15:25.744Z,4.65
2023-05-09T09:17:52.252Z,3.15
2023-05-09T09:20:18.797Z,3.95
2023-05-09T09:22:45.423Z,3.67
2023-05-09T09:25:12.180Z,7.32
2023-05-09T09:27:38.875Z,5.47
2023-05-09T09:30:09.085Z,4.50
2023-05-09T09:32:35.857Z,2.15
2023-05-09T09:35:07.182Z,2.92
2023-05-09T09:37:34.555Z,3.47
2023-05-09T09:40:01.266Z,3.97
2023-05-09T09:42:32.432Z,2.10
2023-05-09T09:45:15.654Z,1.60
2023-05-09T09:47:46.086Z,2.63
2023-05-09T09:50:13.662Z,4.65
2023-05-09T09:52:53.170Z,3.08
2023-05-09T09:55:19.912Z,3.50
2023-05-09T09:57:48.173Z,1.75
2023-05-09T10:00:16.207Z,2.20
2023-05-09T10:02:49.737Z,1.90
2023-05-09T10:05:20.309Z,1.45
2023-05-09T10:07:47.110Z,1.50
2023-05-09T10:10:14.499Z,1.30
2023-05-09T10:12:41.417Z,3.08
2023-05-09T10:15:08.269Z,2.80
2023-05-09T10:17:34.970Z,1.25
2023-05-09T10:20:02.936Z,8.93
2023-05-09T10:22:29.554Z,4.05
2023-05-09T10:24:59.434Z,3.00
2023-05-09T10:27:27.115Z,1.13
2023-05-09T10:30:11.204Z,1.08
2023-05-09T10:32:37.830Z,2.78
2023-05-09T10:35:07.999Z,3.58
2023-05-09T10:37:34.555Z,2.30
2023-05-09T10:40:01.635Z,1.73
2023-05-09T10:42:28.580Z,2.65
2023-05-09T10:44:55.338Z,2.08
2023-05-09T10:47:22.113Z,1.52
2023-05-09T10:49:49.217Z,1.20
2023-05-09T10:52:17.877Z,1.10
2023-05-09T10:54:44.523Z,4.57
2023-05-09T10:57:11.127Z,1.55
2023-05-09T10:59:38.552Z,3.25
2023-05-09T11:02:05.519Z,5.57
2023-05-09T11:04:37.464Z,1.60
2023-05-09T11:07:12.799Z,3.10
2023-05-09T11:09:41.442Z,2.05
2023-05-09T11:12:10.710Z,1.55
2023-05-09T11:14:58.315Z,2.30
2023-05-09T11:17:24.869Z,3.25
2023-05-09T11:19:51.538Z,2.15
2023-05-09T11:22:18.123Z,1.33
2023-05-09T11:24:54.238Z,2.75
2023-05-09T11:27:21.436Z,2.33
2023-05-09T11:29:57.720Z,7.20
2023-05-09T11:32:34.411Z,3.33
2023-05-09T11:35:11.047Z,2.05
2023-05-09T11:37:48.160Z,2.50
2023-05-09T11:40:15.349Z,1.05
2023-05-09T11:42:42.467Z,1.23
2023-05-09T11:45:09.209Z,3.75
2023-05-09T11:47:36.255Z,1.08
2023-05-09T11:50:02.888Z,2.53
2023-05-09T11:52:32.052Z,3.10
2023-05-09T11:55:00.074Z,1.52
2023-05-09T11:57:26.778Z,2.80
2023-05-09T11:59:53.855Z,1.73
2023-05-09T12:02:20.476Z,1.63
2023-05-09T12:04:47.077Z,1.25
2023-05-09T12:07:13.721Z,1.10
2023-05-09T12:09:40.758Z,3.33
2023-05-09T12:12:14.480Z,1.38
2023-05-09T12:14:41.198Z,1.88
2023-05-09T12:17:08.120Z,2.25
2023-05-09T12:19:34.728Z,3.55
2023-05-09T12:22:01.990Z,3.85
2023-05-09T12:24:28.892Z,1.02
2023-05-09T12:26:59.021Z,1.58
2023-05-09T12:29:28.308Z,1.58
2023-05-09T12:31:55.057Z,1.40
2023-05-09T12:34:21.963Z,1.58
2023-05-09T12:36:51.073Z,0.80
2023-05-09T12:39:24.776Z,1.50
2023-05-09T12:42:01.049Z,1.63
2023-05-09T12:44:30.099Z,1.98
2023-05-09T12:47:03.286Z,1.55
2023-05-09T12:49:30.178Z,2.60
2023-05-09T12:51:58.365Z,1.20
2023-05-09T12:54:25.577Z,0.70
2023-05-09T12:56:52.783Z,1.48
2023-05-09T12:59:26.200Z,4.10
2023-05-09T13:01:59.606Z,1.10
2023-05-09T13:04:26.888Z,3.13
2023-05-09T13:06:57.782Z,3.05
2023-05-09T13:09:24.934Z,1.17
2023-05-09T13:11:51.806Z,0.80
2023-05-09T13:14:18.799Z,1.02
2023-05-09T13:16:45.637Z,0.70
2023-05-09T13:19:12.733Z,0.88
2023-05-09T13:21:39.323Z,1.65
2023-05-09T13:24:06.283Z,1.35
2023-05-09T13:26:33.002Z,1.05
2023-05-09T13:28:59.639Z,0.88
2023-05-09T13:31:26.443Z,1.30
2023-05-09T13:33:53.075Z,1.63
2023-05-09T13:36:19.735Z,1.17
2023-05-09T13:38:46.448Z,1.50
2023-05-09T13:41:14.065Z,1.30
2023-05-09T13:43:43.622Z,1.15
2023-05-09T13:46:10.409Z,0.77
2023-05-09T13:48:37.824Z,1.52
2023-05-09T13:51:06.363Z,2.55
2023-05-09T13:53:32.995Z,1.58
2023-05-09T13:55:59.700Z,1.10
2023-05-09T13:58:26.283Z,3.05
2023-05-09T14:00:53.113Z,1.33
2023-05-09T14:03:19.787Z,2.30
2023-05-09T14:05:46.544Z,5.18
2023-05-09T14:08:13.178Z,1.60
2023-05-09T14:10:39.780Z,1.02
2023-05-09T14:13:08.625Z,2.08
2023-05-09T14:15:35.432Z,2.58
2023-05-09T14:18:02.222Z,1.58
2023-05-09T14:20:29.043Z,1.52
2023-05-09T14:23:00.804Z,2.08
2023-05-09T14:25:27.481Z,1.33
2023-05-09T14:27:54.232Z,3.30
2023-05-09T14:30:20.838Z,1.90
2023-05-09T14:32:47.453Z,1.40
2023-05-09T14:35:13.982Z,1.25
2023-05-09T14:37:41.636Z,1.83
2023-05-09T14:40:10.845Z,1.20
2023-05-09T14:42:38.087Z,1.48
2023-05-09T14:45:05.347Z,1.17
2023-05-09T14:47:32.112Z,1.13
2023-05-09T14:49:58.903Z,1.00
2023-05-09T14:52:25.673Z,1.25
2023-05-09T14:54:52.442Z,1.45
2023-05-09T14:57:19.036Z,0.70
2023-05-09T14:59:45.585Z,1.67
2023-05-09T15:02:12.693Z,3.53
2023-05-09T15:04:41.448Z,0.77
2023-05-09T15:07:08.718Z,1.77
2023-05-09T15:09:35.403Z,2.22
2023-05-09T15:12:02.350Z,1.90
2023-05-09T15:14:28.917Z,0.60
2023-05-09T15:16:59.224Z,2.00
2023-05-09T15:19:26.480Z,0.93
2023-05-09T15:21:55.403Z,4.13
2023-05-09T15:24:21.997Z,1.90
2023-05-09T15:26:48.639Z,1.38
2023-05-09T15:29:15.249Z,1.75
2023-05-09T15:31:41.901Z,0.70
2023-05-09T15:34:08.424Z,1.10
2023-05-09T15:36:37.009Z,1.33
2023-05-09T15:39:05.946Z,3.78
2023-05-09T15:41:32.498Z,1.38
2023-05-09T15:43:59.788Z,1.42
2023-05-09T15:46:26.393Z,2.35
2023-05-09T15:48:55.372Z,2.20
2023-05-09T15:51:22.691Z,1.63
2023-05-09T15:53:50.045Z,2.75
2023-05-09T15:56:16.610Z,2.05
2023-05-09T15:58:43.224Z,1.88
2023-05-09T16:01:13.138Z,1.23
2023-05-09T16:03:39.901Z,1.40
2023-05-09T16:06:14.320Z,0.80
2023-05-09T16:08:41.752Z,1.52
2023-05-09T16:11:08.729Z,3.15
2023-05-09T16:13:36.106Z,1.23
2023-05-09T16:16:03.241Z,0.60
2023-05-09T16:18:29.878Z,3.88
2023-05-09T16:20:56.514Z,0.80
2023-05-09T16:23:23.973Z,2.13
2023-05-09T16:25:55.354Z,1.55
2023-05-09T16:28:24.937Z,2.15
2023-05-09T16:30:52.570Z,1.45
2023-05-09T16:33:19.110Z,2.03
2023-05-09T16:35:45.939Z,0.73
2023-05-09T16:38:13.604Z,1.40
2023-05-09T16:40:40.343Z,0.90
2023-05-09T16:43:07.425Z,2.88
2023-05-09T16:45:34.079Z,0.85
2023-05-09T16:48:02.330Z,0.90
2023-05-09T16:50:29.300Z,0.80
2023-05-09T16:52:56.442Z,2.03
2023-05-09T16:55:23.086Z,0.75
2023-05-09T16:57:49.685Z,1.95
2023-05-09T17:00:16.849Z,0.75
2023-05-09T17:02:43.607Z,4.05
2023-05-09T17:05:10.582Z,2.08
2023-05-09T17:07:37.288Z,0.70
2023-05-09T17:10:05.287Z,1.70
2023-05-09T17:12:32.469Z,1.95
2023-05-09T17:14:59.017Z,1.20
2023-05-09T17:17:25.751Z,0.77
2023-05-09T17:19:52.544Z,1.50
2023-05-09T17:22:19.092Z,2.30
2023-05-09T17:24:46.344Z,3.03
2023-05-09T17:27:13.129Z,2.47
2023-05-09T17:29:41.043Z,1.13
2023-05-09T17:32:07.727Z,1.52
2023-05-09T17:34:34.326Z,1.65
2023-05-09T17:37:02.531Z,3.25
2023-05-09T17:39:29.354Z,3.20
2023-05-09T17:41:56.002Z,1.52
2023-05-09T17:44:22.603Z,1.70
2023-05-09T17:46:50.690Z,1.25
2023-05-09T17:49:17.422Z,2.22
2023-05-09T17:51:43.968Z,3.60
2023-05-09T17:54:10.689Z,2.55
2023-05-09T17:56:37.287Z,1.33
2023-05-09T17:59:03.825Z,1.33
2023-05-09T18:01:30.659Z,1.55
2023-05-09T18:03:57.920Z,1.10
2023-05-09T18:06:24.605Z,4.50
2023-05-09T18:08:51.304Z,2.10
2023-05-09T18:11:17.944Z,2.05
2023-05-09T18:13:44.558Z,2.22
2023-05-09T18:16:11.264Z,3.42
2023-05-09T18:18:37.890Z,1.55
2023-05-09T18:21:05.483Z,2.55
2023-05-09T18:23:33.644Z,1.27
2023-05-09T18:26:00.919Z,3.20
2023-05-09T18:28:27.865Z,2.70
2023-05-09T18:30:58.358Z,2.20
2023-05-09T18:33:25.373Z,2.45
2023-05-09T18:35:53.077Z,1.65
2023-05-09T18:38:19.591Z,2.58
2023-05-09T18:40:46.277Z,2.53
2023-05-09T18:43:12.850Z,4.38
2023-05-09T18:45:39.675Z,4.50
2023-05-09T18:48:06.346Z,3.83
2023-05-09T18:50:33.003Z,3.47
2023-05-09T18:52:59.731Z,2.38
2023-05-09T18:55:26.314Z,2.72
2023-05-09T18:57:53.338Z,3.47
2023-05-09T19:00:19.961Z,3.75
2023-05-09T19:02:46.561Z,2.22
2023-05-09T19:05:13.214Z,2.55
2023-05-09T19:07:39.975Z,2.63
2023-05-09T19:10:08.440Z,2.22
2023-05-09T19:12:38.023Z,3.13
2023-05-09T19:15:05.502Z,2.25
2023-05-09T19:17:32.186Z,2.28
2023-05-09T19:19:58.807Z,2.53
2023-05-09T19:22:25.405Z,5.78
2023-05-09T19:24:52.157Z,2.53
2023-05-09T19:27:19.195Z,4.00
2023-05-09T19:29:47.431Z,3.50
2023-05-09T19:32:15.261Z,2.45
2023-05-09T19:34:41.773Z,2.40
2023-05-09T19:37:08.409Z,2.70
2023-05-09T19:39:34.948Z,5.03
2023-05-09T19:42:01.622Z,4.40
2023-05-09T19:44:28.119Z,5.72
2023-05-09T19:46:57.529Z,6.45
2023-05-09T19:49:24.218Z,3.45
2023-05-09T19:51:50.801Z,3.00
2023-05-09T19:54:17.824Z,4.75
2023-05-09T19:56:44.385Z,3.05
2023-05-09T19:59:10.949Z,4.18
2023-05-09T20:01:38.160Z,2.33
2023-05-09T20:04:04.793Z,2.53
2023-05-09T20:06:31.470Z,3.65
2023-05-09T20:08:58.038Z,5.80
2023-05-09T20:11:24.628Z,6.35
2023-05-09T20:13:51.752Z,4.30
2023-05-09T20:16:20.137Z,3.35
2023-05-09T20:18:46.828Z,2.08
2023-05-09T20:21:13.529Z,2.53
2023-05-09T20:23:40.106Z,4.40
2023-05-09T20:26:06.730Z,5.93
2023-05-09T20:28:33.421Z,3.73
2023-05-09T20:30:59.956Z,4.40
2023-05-09T20:33:26.523Z,2.17
2023-05-09T20:35:53.206Z,3.13
2023-05-09T20:38:19.747Z,3.60
2023-05-09T20:40:46.330Z,4.65
2023-05-09T20:43:12.872Z,3.50
2023-05-09T20:45:39.739Z,5.18
2023-05-09T20:48:06.855Z,3.90
2023-05-09T20:50:33.470Z,3.07
2023-05-09T20:53:00.421Z,2.97
2023-05-09T20:55:27.458Z,2.27
2023-05-09T20:57:54.052Z,3.20
2023-05-09T21:00:21.807Z,3.37
2023-05-09T21:02:48.544Z,2.38
2023-05-09T21:05:15.238Z,4.80
2023-05-09T21:07:41.814Z,2.97
2023-05-09T21:10:10.261Z,4.20
2023-05-09T21:12:37.184Z,3.00
2023-05-09T21:15:03.877Z,2.47
2023-05-09T21:17:30.426Z,3.53
2023-05-09T21:19:57.035Z,3.27
2023-05-09T21:22:23.584Z,3.10
2023-05-09T21:24:51.003Z,3.30
2023-05-09T21:27:17.732Z,2.60
2023-05-09T21:29:44.276Z,3.97
2023-05-09T21:32:10.886Z,4.70
2023-05-09T21:34:37.467Z,3.73
2023-05-09T21:37:04.026Z,5.90
2023-05-09T21:39:32.542Z,3.40
2023-05-09T21:42:00.000Z,2.87
2023-05-09T21:44:26.489Z,5.17
2023-05-09T21:46:53.167Z,5.73
2023-05-09T21:49:21.644Z,5.03
2023-05-09T21:51:48.318Z,3.40
2023-05-09T21:54:14.817Z,4.07
2023-05-09T21:56:42.698Z,4.07
2023-05-09T21:59:09.411Z,5.43
2023-05-09T22:01:35.980Z,4.10
2023-05-09T22:04:02.586Z,4.73
2023-05-09T22:06:29.131Z,6.07
2023-05-09T22:08:55.638Z,6.90
2023-05-09T22:11:22.296Z,3.20
2023-05-09T22:13:48.864Z,3.97
2023-05-09T22:16:15.450Z,3.53
2023-05-09T22:18:42.309Z,4.20
2023-05-09T22:21:08.797Z,6.40
2023-05-09T22:23:35.784Z,4.70
2023-05-09T22:26:02.244Z,4.07
2023-05-09T22:28:28.796Z,3.07
2023-05-09T22:30:55.314Z,5.37
2023-05-09T22:33:22.007Z,7.97
2023-05-09T22:35:48.489Z,5.07
2023-05-09T22:38:15.161Z,7.20
2023-05-09T22:40:41.711Z,5.37
2023-05-09T22:43:08.261Z,6.70
2023-05-09T22:45:34.873Z,5.97
2023-05-09T22:48:01.859Z,8.57
2023-05-09T22:50:28.496Z,5.17
2023-05-09T22:52:55.060Z,7.90
2023-05-09T22:55:21.598Z,4.27
2023-05-09T22:57:48.088Z,6.80
2023-05-09T23:00:15.280Z,5.93
2023-05-09T23:02:42.112Z,8.07
2023-05-09T23:05:08.981Z,4.57
2023-05-09T23:07:35.561Z,3.97
2023-05-09T23:10:02.089Z,6.40
2023-05-09T23:12:29.047Z,6.73
2023-05-09T23:14:55.625Z,6.30
2023-05-09T23:17:23.056Z,4.80
2023-05-09T23:19:49.556Z,5.47
2023-05-09T23:22:16.357Z,3.43
2023-05-09T23:24:42.803Z,5.27
2023-05-09T23:27:09.644Z,4.70
2023-05-09T23:29:36.143Z,6.57
2023-05-09T23:32:02.940Z,5.53
2023-05-09T23:34:30.818Z,5.07
2023-05-09T23:36:57.325Z,6.80
2023-05-09T23:39:23.810Z,4.63
2023-05-09T23:41:50.281Z,9.10
2023-05-09T23:44:17.060Z,5.60
2023-05-09T23:46:43.607Z,5.80
2023-05-09T23:49:10.203Z,5.57
2023-05-09T23:51:36.685Z,10.13
2023-05-09T23:54:03.304Z,7.00
2023-05-09T23:56:30.074Z,6.80
2023-05-09T23:58:56.628Z,4.20
